sensor_id;sensor_type;location;lat;lon;timestamp;temperature;humidity
3564;DHT22;1796;52.388;13.096;2022-10-30T00:00:55;12.80;99.90
3564;DHT22;1796;52.388;13.096;2022-10-30T00:03:22;12.80;99.90
3564;DHT22;1796;52.388;13.096;2022-10-30T00:05:50;12.80;99.90
3564;DHT22;1796;52.388;13.096;2022-10-30T00:08:18;12.70;99.90
3564;DHT22;1796;52.388;13.096;2022-10-30T00:10:46;12.70;99.90
3564;DHT22;1796;52.388;13.096;2022-10-30T00:13:16;12.60;99.90
3564;DHT22;1796;52.388;13.096;2022-10-30T00:15:46;12.60;99.90
3564;DHT22;1796;52.388;13.096;2022-10-30T00:18:14;12.60;99.90
3564;DHT22;1796;52.388;13.096;2022-10-30T00:20:41;12.50;99.90
3564;DHT22;1796;52.388;13.096;2022-10-30T00:23:08;12.50;99.90
3564;DHT22;1796;52.388;13.096;2022-10-30T00:25:35;12.50;99.90
3564;DHT22;1796;52.388;13.096;2022-10-30T00:28:02;12.50;99.90
3564;DHT22;1796;52.388;13.096;2022-10-30T00:30:32;12.60;99.90
3564;DHT22;1796;52.388;13.096;2022-10-30T00:32:59;12.70;99.90
3564;DHT22;1796;52.388;13.096;2022-10-30T00:35:26;12.70;99.90
3564;DHT22;1796;52.388;13.096;2022-10-30T00:37:52;12.70;99.90
3564;DHT22;1796;52.388;13.096;2022-10-30T00:40:19;12.70;99.90
3564;DHT22;1796;52.388;13.096;2022-10-30T00:42:46;12.70;99.90
3564;DHT22;1796;52.388;13.096;2022-10-30T00:45:15;12.60;99.90
3564;DHT22;1796;52.388;13.096;2022-10-30T00:47:49;12.60;99.90
3564;DHT22;1796;52.388;13.096;2022-10-30T00:50:21;12.50;99.90
3564;DHT22;1796;52.388;13.096;2022-10-30T00:52:53;12.50;99.90
3564;DHT22;1796;52.388;13.096;2022-10-30T00:55:24;12.40;99.90
3564;DHT22;1796;52.388;13.096;2022-10-30T00:57:52;12.40;99.90
3564;DHT22;1796;52.388;13.096;2022-10-30T01:00:21;12.30;99.90
3564;DHT22;1796;52.388;13.096;2022-10-30T01:02:49;12.30;99.90
3564;DHT22;1796;52.388;13.096;2022-10-30T01:05:19;12.30;99.90
3564;DHT22;1796;52.388;13.096;2022-10-30T01:07:48;12.20;99.90
3564;DHT22;1796;52.388;13.096;2022-10-30T01:10:15;12.20;99.90
3564;DHT22;1796;52.388;13.096;2022-10-30T01:12:44;12.10;99.90
3564;DHT22;1796;52.388;13.096;2022-10-30T01:15:12;12.10;99.90
3564;DHT22;1796;52.388;13.096;2022-10-30T01:18:09;12.10;99.90
3564;DHT22;1796;52.388;13.096;2022-10-30T01:21:05;12.00;99.90
3564;DHT22;1796;52.388;13.096;2022-10-30T01:23:42;12.00;99.90
3564;DHT22;1796;52.388;13.096;2022-10-30T01:26:18;12.10;99.90
3564;DHT22;1796;52.388;13.096;2022-10-30T01:28:58;12.10;99.90
3564;DHT22;1796;52.388;13.096;2022-10-30T01:31:41;12.20;99.90
3564;DHT22;1796;52.388;13.096;2022-10-30T01:34:17;12.20;99.90
3564;DHT22;1796;52.388;13.096;2022-10-30T01:36:50;12.20;99.90
3564;DHT22;1796;52.388;13.096;2022-10-30T01:39:21;12.30;99.90
3564;DHT22;1796;52.388;13.096;2022-10-30T01:41:49;12.30;99.90
3564;DHT22;1796;52.388;13.096;2022-10-30T01:44:18;12.30;99.90
3564;DHT22;1796;52.388;13.096;2022-10-30T01:46:59;12.30;99.90
3564;DHT22;1796;52.388;13.096;2022-10-30T01:49:43;12.20;99.90
3564;DHT22;1796;52.388;13.096;2022-10-30T01:52:17;12.00;99.90
3564;DHT22;1796;52.388;13.096;2022-10-30T01:54:51;12.00;99.90
3564;DHT22;1796;52.388;13.096;2022-10-30T01:57:26;12.10;99.90
3564;DHT22;1796;52.388;13.096;2022-10-30T02:00:02;12.10;99.90
3564;DHT22;1796;52.388;13.096;2022-10-30T02:02:30;12.10;99.90
3564;DHT22;1796;52.388;13.096;2022-10-30T02:04:59;12.10;99.90
3564;DHT22;1796;52.388;13.096;2022-10-30T02:07:26;12.10;99.90
3564;DHT22;1796;52.388;13.096;2022-10-30T02:09:53;12.20;99.90
3564;DHT22;1796;52.388;13.096;2022-10-30T02:12:21;12.20;99.90
3564;DHT22;1796;52.388;13.096;2022-10-30T02:14:52;12.20;99.90
3564;DHT22;1796;52.388;13.096;2022-10-30T02:17:19;12.10;99.90
3564;DHT22;1796;52.388;13.096;2022-10-30T02:19:47;12.10;99.90
3564;DHT22;1796;52.388;13.096;2022-10-30T02:22:15;12.00;99.90
3564;DHT22;1796;52.388;13.096;2022-10-30T02:24:42;11.80;99.90
3564;DHT22;1796;52.388;13.096;2022-10-30T02:27:09;11.70;99.90
3564;DHT22;1796;52.388;13.096;2022-10-30T02:29:36;11.60;99.90
3564;DHT22;1796;52.388;13.096;2022-10-30T02:32:03;11.60;99.90
3564;DHT22;1796;52.388;13.096;2022-10-30T02:34:30;11.60;99.90
3564;DHT22;1796;52.388;13.096;2022-10-30T02:36:57;11.60;99.90
3564;DHT22;1796;52.388;13.096;2022-10-30T02:39:25;11.50;99.90
3564;DHT22;1796;52.388;13.096;2022-10-30T02:41:52;11.50;99.90
3564;DHT22;1796;52.388;13.096;2022-10-30T02:44:19;11.50;99.90
3564;DHT22;1796;52.388;13.096;2022-10-30T02:46:46;11.60;99.90
3564;DHT22;1796;52.388;13.096;2022-10-30T02:49:13;11.50;99.90
3564;DHT22;1796;52.388;13.096;2022-10-30T02:51:39;11.60;99.90
3564;DHT22;1796;52.388;13.096;2022-10-30T02:54:06;11.60;99.90
3564;DHT22;1796;52.388;13.096;2022-10-30T02:56:35;11.60;99.90
3564;DHT22;1796;52.388;13.096;2022-10-30T02:59:02;11.60;99.90
3564;DHT22;1796;52.388;13.096;2022-10-30T03:01:28;11.60;99.90
3564;DHT22;1796;52.388;13.096;2022-10-30T03:03:55;11.70;99.90
3564;DHT22;1796;52.388;13.096;2022-10-30T03:06:22;11.80;99.90
3564;DHT22;1796;52.388;13.096;2022-10-30T03:08:49;11.80;99.90
3564;DHT22;1796;52.388;13.096;2022-10-30T03:11:18;11.80;99.90
3564;DHT22;1796;52.388;13.096;2022-10-30T03:13:47;11.80;99.90
3564;DHT22;1796;52.388;13.096;2022-10-30T03:16:18;12.00;99.90
3564;DHT22;1796;52.388;13.096;2022-10-30T03:18:46;12.00;99.90
3564;DHT22;1796;52.388;13.096;2022-10-30T03:21:14;12.00;99.90
3564;DHT22;1796;52.388;13.096;2022-10-30T03:23:41;12.00;99.90
3564;DHT22;1796;52.388;13.096;2022-10-30T03:26:08;12.10;99.90
3564;DHT22;1796;52.388;13.096;2022-10-30T03:28:35;12.10;99.90
3564;DHT22;1796;52.388;13.096;2022-10-30T03:31:05;12.00;99.90
3564;DHT22;1796;52.388;13.096;2022-10-30T03:33:33;12.00;99.90
3564;DHT22;1796;52.388;13.096;2022-10-30T03:36:01;12.00;99.90
3564;DHT22;1796;52.388;13.096;2022-10-30T03:38:28;12.00;99.90
3564;DHT22;1796;52.388;13.096;2022-10-30T03:40:55;12.00;99.90
3564;DHT22;1796;52.388;13.096;2022-10-30T03:43:22;11.90;99.90
3564;DHT22;1796;52.388;13.096;2022-10-30T03:45:50;11.90;99.90
3564;DHT22;1796;52.388;13.096;2022-10-30T03:48:20;11.90;99.90
3564;DHT22;1796;52.388;13.096;2022-10-30T03:50:47;12.00;99.90
3564;DHT22;1796;52.388;13.096;2022-10-30T03:53:14;12.00;99.90
3564;DHT22;1796;52.388;13.096;2022-10-30T03:55:41;12.10;99.90
3564;DHT22;1796;52.388;13.096;2022-10-30T03:58:08;12.10;99.90
3564;DHT22;1796;52.388;13.096;2022-10-30T04:00:35;12.10;99.90
3564;DHT22;1796;52.388;13.096;2022-10-30T04:03:05;12.00;99.90
3564;DHT22;1796;52.388;13.096;2022-10-30T04:05:35;12.00;99.90
3564;DHT22;1796;52.388;13.096;2022-10-30T04:08:04;12.00;99.90
3564;DHT22;1796;52.388;13.096;2022-10-30T04:10:32;12.10;99.90
3564;DHT22;1796;52.388;13.096;2022-10-30T04:12:59;12.10;99.90
3564;DHT22;1796;52.388;13.096;2022-10-30T04:15:26;12.10;99.90
3564;DHT22;1796;52.388;13.096;2022-10-30T04:17:53;12.10;99.90
3564;DHT22;1796;52.388;13.096;2022-10-30T04:20:21;12.00;99.90
3564;DHT22;1796;52.388;13.096;2022-10-30T04:22:54;12.00;99.90
3564;DHT22;1796;52.388;13.096;2022-10-30T04:25:21;12.00;99.90
3564;DHT22;1796;52.388;13.096;2022-10-30T04:27:48;12.00;99.90
3564;DHT22;1796;52.388;13.096;2022-10-30T04:30:17;12.00;99.90
3564;DHT22;1796;52.388;13.096;2022-10-30T04:32:46;12.10;99.90
3564;DHT22;1796;52.388;13.096;2022-10-30T04:35:16;12.20;99.90
3564;DHT22;1796;52.388;13.096;2022-10-30T04:37:43;12.20;99.90
3564;DHT22;1796;52.388;13.096;2022-10-30T04:40:18;12.30;99.90
3564;DHT22;1796;52.388;13.096;2022-10-30T04:42:45;12.20;99.90
3564;DHT22;1796;52.388;13.096;2022-10-30T04:45:13;12.20;99.90
3564;DHT22;1796;52.388;13.096;2022-10-30T04:47:39;12.20;99.90
3564;DHT22;1796;52.388;13.096;2022-10-30T04:50:07;12.20;99.90
3564;DHT22;1796;52.388;13.096;2022-10-30T04:52:34;12.30;99.90
3564;DHT22;1796;52.388;13.096;2022-10-30T04:55:01;12.30;99.90
3564;DHT22;1796;52.388;13.096;2022-10-30T04:57:30;12.20;99.90
3564;DHT22;1796;52.388;13.096;2022-10-30T04:59:57;12.20;99.90
3564;DHT22;1796;52.388;13.096;2022-10-30T05:02:24;12.30;99.90
3564;DHT22;1796;52.388;13.096;2022-10-30T05:04:50;12.30;99.90
3564;DHT22;1796;52.388;13.096;2022-10-30T05:07:17;12.30;99.90
3564;DHT22;1796;52.388;13.096;2022-10-30T05:09:44;12.30;99.90
3564;DHT22;1796;52.388;13.096;2022-10-30T05:12:11;12.30;99.90
3564;DHT22;1796;52.388;13.096;2022-10-30T05:14:39;12.30;99.90
3564;DHT22;1796;52.388;13.096;2022-10-30T05:17:06;12.30;99.90
3564;DHT22;1796;52.388;13.096;2022-10-30T05:19:33;12.30;99.90
3564;DHT22;1796;52.388;13.096;2022-10-30T05:22:00;12.30;99.90
3564;DHT22;1796;52.388;13.096;2022-10-30T05:24:26;12.30;99.90
3564;DHT22;1796;52.388;13.096;2022-10-30T05:26:53;12.40;99.90
3564;DHT22;1796;52.388;13.096;2022-10-30T05:29:20;12.40;99.90
3564;DHT22;1796;52.388;13.096;2022-10-30T05:31:48;12.40;99.90
3564;DHT22;1796;52.388;13.096;2022-10-30T05:34:15;12.40;99.90
3564;DHT22;1796;52.388;13.096;2022-10-30T05:36:42;12.40;99.90
3564;DHT22;1796;52.388;13.096;2022-10-30T05:39:09;12.40;99.90
3564;DHT22;1796;52.388;13.096;2022-10-30T05:41:36;12.40;99.90
3564;DHT22;1796;52.388;13.096;2022-10-30T05:44:03;12.40;99.90
3564;DHT22;1796;52.388;13.096;2022-10-30T05:46:30;12.50;99.90
3564;DHT22;1796;52.388;13.096;2022-10-30T05:48:58;12.50;99.90
3564;DHT22;1796;52.388;13.096;2022-10-30T05:51:25;12.40;99.90
3564;DHT22;1796;52.388;13.096;2022-10-30T05:53:52;12.40;99.90
3564;DHT22;1796;52.388;13.096;2022-10-30T05:56:19;12.40;99.90
3564;DHT22;1796;52.388;13.096;2022-10-30T05:58:47;12.40;99.90
3564;DHT22;1796;52.388;13.096;2022-10-30T06:01:14;12.30;99.90
3564;DHT22;1796;52.388;13.096;2022-10-30T06:03:41;12.30;99.90
3564;DHT22;1796;52.388;13.096;2022-10-30T06:06:10;12.30;99.90
3564;DHT22;1796;52.388;13.096;2022-10-30T06:08:37;12.30;99.90
3564;DHT22;1796;52.388;13.096;2022-10-30T06:11:04;12.30;99.90
3564;DHT22;1796;52.388;13.096;2022-10-30T06:13:31;12.30;99.90
3564;DHT22;1796;52.388;13.096;2022-10-30T06:15:57;12.20;99.90
3564;DHT22;1796;52.388;13.096;2022-10-30T06:18:24;12.10;99.90
3564;DHT22;1796;52.388;13.096;2022-10-30T06:20:53;12.10;99.90
3564;DHT22;1796;52.388;13.096;2022-10-30T06:23:21;12.10;99.90
3564;DHT22;1796;52.388;13.096;2022-10-30T06:25:48;12.00;99.90
3564;DHT22;1796;52.388;13.096;2022-10-30T06:28:15;12.00;99.90
3564;DHT22;1796;52.388;13.096;2022-10-30T06:30:42;12.00;99.90
3564;DHT22;1796;52.388;13.096;2022-10-30T06:33:09;12.00;99.90
3564;DHT22;1796;52.388;13.096;2022-10-30T06:35:36;12.00;99.90
3564;DHT22;1796;52.388;13.096;2022-10-30T06:38:03;12.00;99.90
3564;DHT22;1796;52.388;13.096;2022-10-30T06:40:31;12.10;99.90
3564;DHT22;1796;52.388;13.096;2022-10-30T06:42:58;12.20;99.90
3564;DHT22;1796;52.388;13.096;2022-10-30T06:45:25;12.10;99.90
3564;DHT22;1796;52.388;13.096;2022-10-30T06:47:52;12.10;99.90
3564;DHT22;1796;52.388;13.096;2022-10-30T06:50:20;12.20;99.90
3564;DHT22;1796;52.388;13.096;2022-10-30T06:52:48;12.20;99.90
3564;DHT22;1796;52.388;13.096;2022-10-30T06:55:16;12.30;99.90
3564;DHT22;1796;52.388;13.096;2022-10-30T06:57:44;12.30;99.90
3564;DHT22;1796;52.388;13.096;2022-10-30T07:00:12;12.40;99.90
3564;DHT22;1796;52.388;13.096;2022-10-30T07:02:39;12.40;99.90
3564;DHT22;1796;52.388;13.096;2022-10-30T07:05:06;12.50;99.90
3564;DHT22;1796;52.388;13.096;2022-10-30T07:07:33;12.60;99.90
3564;DHT22;1796;52.388;13.096;2022-10-30T07:10:00;12.60;99.90
3564;DHT22;1796;52.388;13.096;2022-10-30T07:12:27;12.60;99.90
3564;DHT22;1796;52.388;13.096;2022-10-30T07:14:55;12.70;99.90
3564;DHT22;1796;52.388;13.096;2022-10-30T07:17:22;12.60;99.90
3564;DHT22;1796;52.388;13.096;2022-10-30T07:19:49;12.70;99.90
3564;DHT22;1796;52.388;13.096;2022-10-30T07:22:15;12.80;99.90
3564;DHT22;1796;52.388;13.096;2022-10-30T07:24:43;12.90;99.90
3564;DHT22;1796;52.388;13.096;2022-10-30T07:27:10;13.00;99.90
3564;DHT22;1796;52.388;13.096;2022-10-30T07:29:37;13.10;99.90
3564;DHT22;1796;52.388;13.096;2022-10-30T07:32:05;13.20;99.90
3564;DHT22;1796;52.388;13.096;2022-10-30T07:34:32;13.30;99.90
3564;DHT22;1796;52.388;13.096;2022-10-30T07:36:59;13.40;99.90
3564;DHT22;1796;52.388;13.096;2022-10-30T07:39:26;13.40;99.90
3564;DHT22;1796;52.388;13.096;2022-10-30T07:41:53;13.50;99.90
3564;DHT22;1796;52.388;13.096;2022-10-30T07:44:19;13.50;99.90
3564;DHT22;1796;52.388;13.096;2022-10-30T07:46:46;13.60;99.90
3564;DHT22;1796;52.388;13.096;2022-10-30T07:49:14;13.70;99.90
3564;DHT22;1796;52.388;13.096;2022-10-30T07:51:41;13.70;99.90
3564;DHT22;1796;52.388;13.096;2022-10-30T07:54:08;13.80;99.90
3564;DHT22;1796;52.388;13.096;2022-10-30T07:56:35;13.80;99.90
3564;DHT22;1796;52.388;13.096;2022-10-30T07:59:02;14.00;99.90
3564;DHT22;1796;52.388;13.096;2022-10-30T08:01:29;14.00;99.90
3564;DHT22;1796;52.388;13.096;2022-10-30T08:03:56;14.20;99.90
3564;DHT22;1796;52.388;13.096;2022-10-30T08:06:24;14.30;99.90
3564;DHT22;1796;52.388;13.096;2022-10-30T08:08:51;14.40;99.90
3564;DHT22;1796;52.388;13.096;2022-10-30T08:11:17;14.50;99.90
3564;DHT22;1796;52.388;13.096;2022-10-30T08:13:44;14.70;99.90
3564;DHT22;1796;52.388;13.096;2022-10-30T08:16:11;14.80;99.90
3564;DHT22;1796;52.388;13.096;2022-10-30T08:18:38;14.80;99.90
3564;DHT22;1796;52.388;13.096;2022-10-30T08:21:07;15.00;99.90
3564;DHT22;1796;52.388;13.096;2022-10-30T08:23:35;15.00;99.90
3564;DHT22;1796;52.388;13.096;2022-10-30T08:26:02;15.20;99.90
3564;DHT22;1796;52.388;13.096;2022-10-30T08:28:30;15.40;99.90
3564;DHT22;1796;52.388;13.096;2022-10-30T08:30:57;15.60;99.90
3564;DHT22;1796;52.388;13.096;2022-10-30T08:33:24;15.80;99.90
3564;DHT22;1796;52.388;13.096;2022-10-30T08:35:52;15.90;99.90
3564;DHT22;1796;52.388;13.096;2022-10-30T08:38:21;16.00;99.90
3564;DHT22;1796;52.388;13.096;2022-10-30T08:40:49;16.10;99.90
3564;DHT22;1796;52.388;13.096;2022-10-30T08:43:16;16.30;99.90
3564;DHT22;1796;52.388;13.096;2022-10-30T08:45:43;16.40;99.90
3564;DHT22;1796;52.388;13.096;2022-10-30T08:48:12;16.60;99.90
3564;DHT22;1796;52.388;13.096;2022-10-30T08:50:39;16.70;99.90
3564;DHT22;1796;52.388;13.096;2022-10-30T08:53:07;16.80;99.90
3564;DHT22;1796;52.388;13.096;2022-10-30T08:55:35;16.90;99.90
3564;DHT22;1796;52.388;13.096;2022-10-30T08:58:04;17.00;99.90
3564;DHT22;1796;52.388;13.096;2022-10-30T09:00:31;17.10;99.90
3564;DHT22;1796;52.388;13.096;2022-10-30T09:02:58;17.10;99.90
3564;DHT22;1796;52.388;13.096;2022-10-30T09:05:25;17.10;99.90
3564;DHT22;1796;52.388;13.096;2022-10-30T09:07:55;17.10;99.90
3564;DHT22;1796;52.388;13.096;2022-10-30T09:10:22;17.20;99.90
3564;DHT22;1796;52.388;13.096;2022-10-30T09:12:53;17.20;99.90
3564;DHT22;1796;52.388;13.096;2022-10-30T09:15:21;17.20;99.90
3564;DHT22;1796;52.388;13.096;2022-10-30T09:17:54;17.20;99.90
3564;DHT22;1796;52.388;13.096;2022-10-30T09:20:22;17.20;99.90
3564;DHT22;1796;52.388;13.096;2022-10-30T09:22:48;17.20;99.90
3564;DHT22;1796;52.388;13.096;2022-10-30T09:25:15;17.20;99.90
3564;DHT22;1796;52.388;13.096;2022-10-30T09:27:42;17.30;99.90
3564;DHT22;1796;52.388;13.096;2022-10-30T09:30:10;17.30;99.90
3564;DHT22;1796;52.388;13.096;2022-10-30T09:32:39;17.40;99.90
3564;DHT22;1796;52.388;13.096;2022-10-30T09:35:06;17.50;99.90
3564;DHT22;1796;52.388;13.096;2022-10-30T09:37:34;17.50;99.90
3564;DHT22;1796;52.388;13.096;2022-10-30T09:40:01;17.60;99.90
3564;DHT22;1796;52.388;13.096;2022-10-30T09:42:41;17.60;99.90
3564;DHT22;1796;52.388;13.096;2022-10-30T09:45:31;17.60;99.90
3564;DHT22;1796;52.388;13.096;2022-10-30T09:48:13;17.70;99.90
3564;DHT22;1796;52.388;13.096;2022-10-30T09:50:49;17.80;99.90
3564;DHT22;1796;52.388;13.096;2022-10-30T09:53:27;17.90;99.90
3564;DHT22;1796;52.388;13.096;2022-10-30T09:56:02;18.00;99.90
3564;DHT22;1796;52.388;13.096;2022-10-30T09:58:35;18.20;99.90
3564;DHT22;1796;52.388;13.096;2022-10-30T10:01:10;18.20;99.90
3564;DHT22;1796;52.388;13.096;2022-10-30T10:03:55;18.20;99.90
3564;DHT22;1796;52.388;13.096;2022-10-30T10:06:24;18.20;99.90
3564;DHT22;1796;52.388;13.096;2022-10-30T10:08:55;18.20;99.90
3564;DHT22;1796;52.388;13.096;2022-10-30T10:11:27;18.20;99.90
3564;DHT22;1796;52.388;13.096;2022-10-30T10:13:57;18.40;99.90
3564;DHT22;1796;52.388;13.096;2022-10-30T10:16:28;18.60;99.90
3564;DHT22;1796;52.388;13.096;2022-10-30T10:19:01;18.70;99.90
3564;DHT22;1796;52.388;13.096;2022-10-30T10:21:38;18.70;99.90
3564;DHT22;1796;52.388;13.096;2022-10-30T10:24:14;18.80;99.90
3564;DHT22;1796;52.388;13.096;2022-10-30T10:26:47;18.90;99.90
3564;DHT22;1796;52.388;13.096;2022-10-30T10:29:45;19.00;99.90
3564;DHT22;1796;52.388;13.096;2022-10-30T10:32:36;18.90;99.90
3564;DHT22;1796;52.388;13.096;2022-10-30T10:35:35;19.00;99.90
3564;DHT22;1796;52.388;13.096;2022-10-30T10:38:13;19.10;99.90
3564;DHT22;1796;52.388;13.096;2022-10-30T10:40:50;19.10;99.90
3564;DHT22;1796;52.388;13.096;2022-10-30T10:43:27;19.20;99.90
3564;DHT22;1796;52.388;13.096;2022-10-30T10:46:18;19.30;99.90
3564;DHT22;1796;52.388;13.096;2022-10-30T10:48:59;19.50;99.90
3564;DHT22;1796;52.388;13.096;2022-10-30T10:51:32;19.50;99.90
3564;DHT22;1796;52.388;13.096;2022-10-30T10:54:05;19.50;99.90
3564;DHT22;1796;52.388;13.096;2022-10-30T10:56:36;19.60;99.90
3564;DHT22;1796;52.388;13.096;2022-10-30T10:59:05;19.70;99.90
3564;DHT22;1796;52.388;13.096;2022-10-30T11:01:37;19.70;99.90
3564;DHT22;1796;52.388;13.096;2022-10-30T11:04:09;19.70;99.90
3564;DHT22;1796;52.388;13.096;2022-10-30T11:06:41;19.70;99.90
3564;DHT22;1796;52.388;13.096;2022-10-30T11:09:13;19.70;99.90
3564;DHT22;1796;52.388;13.096;2022-10-30T11:11:42;19.90;99.90
3564;DHT22;1796;52.388;13.096;2022-10-30T11:14:13;19.80;99.90
3564;DHT22;1796;52.388;13.096;2022-10-30T11:16:55;19.90;99.90
3564;DHT22;1796;52.388;13.096;2022-10-30T11:19:25;19.80;99.90
3564;DHT22;1796;52.388;13.096;2022-10-30T11:21:54;19.80;99.90
3564;DHT22;1796;52.388;13.096;2022-10-30T11:24:27;19.90;99.90
3564;DHT22;1796;52.388;13.096;2022-10-30T11:26:56;20.00;99.90
3564;DHT22;1796;52.388;13.096;2022-10-30T11:29:24;20.00;99.90
3564;DHT22;1796;52.388;13.096;2022-10-30T11:32:00;20.00;99.90
3564;DHT22;1796;52.388;13.096;2022-10-30T11:34:32;20.10;99.90
3564;DHT22;1796;52.388;13.096;2022-10-30T11:37:02;20.10;99.90
3564;DHT22;1796;52.388;13.096;2022-10-30T11:39:31;20.20;99.90
3564;DHT22;1796;52.388;13.096;2022-10-30T11:42:04;20.30;99.90
3564;DHT22;1796;52.388;13.096;2022-10-30T11:44:35;20.40;99.90
3564;DHT22;1796;52.388;13.096;2022-10-30T11:47:03;20.50;99.90
3564;DHT22;1796;52.388;13.096;2022-10-30T11:49:39;20.60;99.90
3564;DHT22;1796;52.388;13.096;2022-10-30T11:52:08;20.60;99.90
3564;DHT22;1796;52.388;13.096;2022-10-30T11:54:38;20.60;99.90
3564;DHT22;1796;52.388;13.096;2022-10-30T11:57:16;20.50;99.90
3564;DHT22;1796;52.388;13.096;2022-10-30T11:59:45;20.50;99.90
3564;DHT22;1796;52.388;13.096;2022-10-30T12:02:21;20.50;99.90
3564;DHT22;1796;52.388;13.096;2022-10-30T12:04:49;20.60;99.90
3564;DHT22;1796;52.388;13.096;2022-10-30T12:07:24;20.60;99.90
3564;DHT22;1796;52.388;13.096;2022-10-30T12:09:52;20.60;99.90
3564;DHT22;1796;52.388;13.096;2022-10-30T12:12:22;20.70;99.90
3564;DHT22;1796;52.388;13.096;2022-10-30T12:14:50;20.70;99.90
3564;DHT22;1796;52.388;13.096;2022-10-30T12:17:18;20.80;99.90
3564;DHT22;1796;52.388;13.096;2022-10-30T12:19:48;20.70;99.90
3564;DHT22;1796;52.388;13.096;2022-10-30T12:22:29;20.80;99.90
3564;DHT22;1796;52.388;13.096;2022-10-30T12:24:57;20.80;99.90
3564;DHT22;1796;52.388;13.096;2022-10-30T12:27:26;20.80;99.90
3564;DHT22;1796;52.388;13.096;2022-10-30T12:30:02;20.80;99.90
3564;DHT22;1796;52.388;13.096;2022-10-30T12:32:37;20.90;99.90
3564;DHT22;1796;52.388;13.096;2022-10-30T12:35:14;20.80;99.90
3564;DHT22;1796;52.388;13.096;2022-10-30T12:37:43;20.80;99.90
3564;DHT22;1796;52.388;13.096;2022-10-30T12:40:14;20.90;99.90
3564;DHT22;1796;52.388;13.096;2022-10-30T12:42:47;20.90;99.90
3564;DHT22;1796;52.388;13.096;2022-10-30T12:45:19;20.90;99.90
3564;DHT22;1796;52.388;13.096;2022-10-30T12:47:51;20.90;99.90
3564;DHT22;1796;52.388;13.096;2022-10-30T12:50:23;21.00;99.90
3564;DHT22;1796;52.388;13.096;2022-10-30T12:52:56;20.90;99.90
3564;DHT22;1796;52.388;13.096;2022-10-30T12:55:27;20.90;99.90
3564;DHT22;1796;52.388;13.096;2022-10-30T12:58:03;20.80;99.90
3564;DHT22;1796;52.388;13.096;2022-10-30T13:00:36;20.90;99.90
3564;DHT22;1796;52.388;13.096;2022-10-30T13:03:18;20.90;99.90
3564;DHT22;1796;52.388;13.096;2022-10-30T13:05:48;20.80;99.90
3564;DHT22;1796;52.388;13.096;2022-10-30T13:08:21;20.90;99.90
3564;DHT22;1796;52.388;13.096;2022-10-30T13:10:53;20.90;99.90
3564;DHT22;1796;52.388;13.096;2022-10-30T13:13:26;21.00;99.90
3564;DHT22;1796;52.388;13.096;2022-10-30T13:15:56;21.00;99.90
3564;DHT22;1796;52.388;13.096;2022-10-30T13:18:25;21.00;99.90
3564;DHT22;1796;52.388;13.096;2022-10-30T13:21:02;21.00;99.90
3564;DHT22;1796;52.388;13.096;2022-10-30T13:23:38;21.10;99.90
3564;DHT22;1796;52.388;13.096;2022-10-30T13:26:12;21.00;99.90
3564;DHT22;1796;52.388;13.096;2022-10-30T13:28:45;21.00;99.90
3564;DHT22;1796;52.388;13.096;2022-10-30T13:31:20;21.00;99.90
3564;DHT22;1796;52.388;13.096;2022-10-30T13:33:56;21.10;99.90
3564;DHT22;1796;52.388;13.096;2022-10-30T13:36:30;21.00;99.90
3564;DHT22;1796;52.388;13.096;2022-10-30T13:39:06;21.00;99.90
3564;DHT22;1796;52.388;13.096;2022-10-30T13:41:43;21.10;99.90
3564;DHT22;1796;52.388;13.096;2022-10-30T13:44:23;21.10;99.90
3564;DHT22;1796;52.388;13.096;2022-10-30T13:47:04;21.00;99.90
3564;DHT22;1796;52.388;13.096;2022-10-30T13:49:52;21.10;99.90
3564;DHT22;1796;52.388;13.096;2022-10-30T13:52:22;21.00;99.90
3564;DHT22;1796;52.388;13.096;2022-10-30T13:54:58;21.10;99.90
3564;DHT22;1796;52.388;13.096;2022-10-30T13:57:31;21.00;99.90
3564;DHT22;1796;52.388;13.096;2022-10-30T14:00:04;21.00;99.90
3564;DHT22;1796;52.388;13.096;2022-10-30T14:02:49;20.90;99.90
3564;DHT22;1796;52.388;13.096;2022-10-30T14:05:27;20.90;99.90
3564;DHT22;1796;52.388;13.096;2022-10-30T14:08:04;21.00;99.90
3564;DHT22;1796;52.388;13.096;2022-10-30T14:10:43;20.90;99.90
3564;DHT22;1796;52.388;13.096;2022-10-30T14:13:19;20.90;99.90
3564;DHT22;1796;52.388;13.096;2022-10-30T14:15:46;20.90;99.90
3564;DHT22;1796;52.388;13.096;2022-10-30T14:21:33;20.70;99.90
3564;DHT22;1796;52.388;13.096;2022-10-30T14:24:03;20.60;99.90
3564;DHT22;1796;52.388;13.096;2022-10-30T14:26:32;20.50;99.90
3564;DHT22;1796;52.388;13.096;2022-10-30T14:29:30;20.50;99.90
3564;DHT22;1796;52.388;13.096;2022-10-30T14:32:38;20.50;99.90
3564;DHT22;1796;52.388;13.096;2022-10-30T14:35:29;20.40;99.90
3564;DHT22;1796;52.388;13.096;2022-10-30T14:38:23;20.40;99.90
3564;DHT22;1796;52.388;13.096;2022-10-30T14:41:18;20.30;99.90
3564;DHT22;1796;52.388;13.096;2022-10-30T14:43:55;20.20;99.90
3564;DHT22;1796;52.388;13.096;2022-10-30T14:46:30;20.10;99.90
3564;DHT22;1796;52.388;13.096;2022-10-30T14:49:08;20.10;99.90
3564;DHT22;1796;52.388;13.096;2022-10-30T14:51:41;20.00;99.90
3564;DHT22;1796;52.388;13.096;2022-10-30T14:54:16;20.00;99.90
3564;DHT22;1796;52.388;13.096;2022-10-30T14:56:47;19.90;99.90
3564;DHT22;1796;52.388;13.096;2022-10-30T14:59:31;19.80;99.90
3564;DHT22;1796;52.388;13.096;2022-10-30T15:02:08;19.80;99.90
3564;DHT22;1796;52.388;13.096;2022-10-30T15:04:47;19.70;99.90
3564;DHT22;1796;52.388;13.096;2022-10-30T15:07:25;19.70;99.90
3564;DHT22;1796;52.388;13.096;2022-10-30T15:10:10;19.60;99.90
3564;DHT22;1796;52.388;13.096;2022-10-30T15:13:00;19.50;99.90
3564;DHT22;1796;52.388;13.096;2022-10-30T15:15:29;19.40;99.90
3564;DHT22;1796;52.388;13.096;2022-10-30T15:18:01;19.30;99.90
3564;DHT22;1796;52.388;13.096;2022-10-30T15:20:31;19.20;99.90
3564;DHT22;1796;52.388;13.096;2022-10-30T15:23:00;19.10;99.90
3564;DHT22;1796;52.388;13.096;2022-10-30T15:25:32;18.90;99.90
3564;DHT22;1796;52.388;13.096;2022-10-30T15:28:00;18.70;99.90
3564;DHT22;1796;52.388;13.096;2022-10-30T15:30:27;18.60;99.90
3564;DHT22;1796;52.388;13.096;2022-10-30T15:32:54;18.40;99.90
3564;DHT22;1796;52.388;13.096;2022-10-30T15:35:24;18.20;99.90
3564;DHT22;1796;52.388;13.096;2022-10-30T15:38:02;18.10;99.90
3564;DHT22;1796;52.388;13.096;2022-10-30T15:40:31;18.00;99.90
3564;DHT22;1796;52.388;13.096;2022-10-30T15:43:00;17.80;99.90
3564;DHT22;1796;52.388;13.096;2022-10-30T15:45:32;17.60;99.90
3564;DHT22;1796;52.388;13.096;2022-10-30T15:48:04;17.50;99.90
3564;DHT22;1796;52.388;13.096;2022-10-30T15:50:34;17.30;99.90
3564;DHT22;1796;52.388;13.096;2022-10-30T15:53:02;17.30;99.90
3564;DHT22;1796;52.388;13.096;2022-10-30T15:55:30;17.20;99.90
3564;DHT22;1796;52.388;13.096;2022-10-30T15:57:59;17.10;99.90
3564;DHT22;1796;52.388;13.096;2022-10-30T16:00:30;17.00;99.90
3564;DHT22;1796;52.388;13.096;2022-10-30T16:03:00;17.00;99.90
3564;DHT22;1796;52.388;13.096;2022-10-30T16:05:28;16.80;99.90
3564;DHT22;1796;52.388;13.096;2022-10-30T16:07:59;16.70;99.90
3564;DHT22;1796;52.388;13.096;2022-10-30T16:10:30;16.60;99.90